sensor_id;sensor_type;location;lat;lon;timestamp;P1;durP1;ratioP1;P2;durP2;ratioP2
23175;SDS011;19910;42.652;23.332;2023-07-22T00:00:25;9.90;;;5.60;;
23175;SDS011;19910;42.652;23.332;2023-07-22T00:02:52;12.15;;;5.43;;
23175;SDS011;19910;42.652;23.332;2023-07-22T00:05:19;9.13;;;4.95;;
23175;SDS011;19910;42.652;23.332;2023-07-22T00:07:48;12.73;;;5.20;;
23175;SDS011;19910;42.652;23.332;2023-07-22T00:10:15;14.02;;;3.80;;
23175;SDS011;19910;42.652;23.332;2023-07-22T00:12:44;15.38;;;5.00;;
23175;SDS011;19910;42.652;23.332;2023-07-22T00:15:11;14.05;;;4.93;;
23175;SDS011;19910;42.652;23.332;2023-07-22T00:17:38;10.02;;;3.88;;
23175;SDS011;19910;42.652;23.332;2023-07-22T00:20:05;8.52;;;3.60;;
23175;SDS011;19910;42.652;23.332;2023-07-22T00:22:35;9.32;;;4.05;;
23175;SDS011;19910;42.652;23.332;2023-07-22T00:25:03;6.55;;;3.95;;
23175;SDS011;19910;42.652;23.332;2023-07-22T00:27:30;9.07;;;3.92;;
23175;SDS011;19910;42.652;23.332;2023-07-22T00:29:58;10.43;;;5.07;;
23175;SDS011;19910;42.652;23.332;2023-07-22T00:32:25;8.75;;;4.38;;
23175;SDS011;19910;42.652;23.332;2023-07-22T00:34:52;8.05;;;4.05;;
23175;SDS011;19910;42.652;23.332;2023-07-22T00:37:18;9.05;;;4.22;;
23175;SDS011;19910;42.652;23.332;2023-07-22T00:39:46;12.43;;;4.28;;
23175;SDS011;19910;42.652;23.332;2023-07-22T00:42:13;11.30;;;4.47;;
23175;SDS011;19910;42.652;23.332;2023-07-22T00:44:40;11.90;;;5.65;;
23175;SDS011;19910;42.652;23.332;2023-07-22T00:47:08;6.55;;;3.85;;
23175;SDS011;19910;42.652;23.332;2023-07-22T00:49:35;10.13;;;4.18;;
23175;SDS011;19910;42.652;23.332;2023-07-22T00:52:04;8.93;;;3.97;;
23175;SDS011;19910;42.652;23.332;2023-07-22T00:54:31;7.85;;;4.10;;
23175;SDS011;19910;42.652;23.332;2023-07-22T00:56:59;10.18;;;4.03;;
23175;SDS011;19910;42.652;23.332;2023-07-22T00:59:26;6.55;;;3.92;;
23175;SDS011;19910;42.652;23.332;2023-07-22T01:01:54;10.23;;;3.60;;
23175;SDS011;19910;42.652;23.332;2023-07-22T01:04:22;8.35;;;4.97;;
23175;SDS011;19910;42.652;23.332;2023-07-22T01:06:50;15.13;;;5.10;;
23175;SDS011;19910;42.652;23.332;2023-07-22T01:09:19;11.10;;;4.68;;
23175;SDS011;19910;42.652;23.332;2023-07-22T01:11:46;10.18;;;5.43;;
23175;SDS011;19910;42.652;23.332;2023-07-22T01:14:13;8.90;;;4.45;;
23175;SDS011;19910;42.652;23.332;2023-07-22T01:16:40;13.40;;;4.90;;
23175;SDS011;19910;42.652;23.332;2023-07-22T01:19:07;5.90;;;4.20;;
23175;SDS011;19910;42.652;23.332;2023-07-22T01:21:38;8.77;;;4.63;;
23175;SDS011;19910;42.652;23.332;2023-07-22T01:24:09;14.40;;;4.72;;
23175;SDS011;19910;42.652;23.332;2023-07-22T01:26:35;10.35;;;4.20;;
23175;SDS011;19910;42.652;23.332;2023-07-22T01:29:03;8.90;;;4.20;;
23175;SDS011;19910;42.652;23.332;2023-07-22T01:31:31;11.02;;;4.65;;
23175;SDS011;19910;42.652;23.332;2023-07-22T01:34:00;8.43;;;4.18;;
23175;SDS011;19910;42.652;23.332;2023-07-22T01:36:26;8.45;;;3.85;;
23175;SDS011;19910;42.652;23.332;2023-07-22T01:38:53;8.10;;;4.20;;
23175;SDS011;19910;42.652;23.332;2023-07-22T01:41:21;7.78;;;4.40;;
23175;SDS011;19910;42.652;23.332;2023-07-22T01:43:48;6.10;;;4.00;;
23175;SDS011;19910;42.652;23.332;2023-07-22T01:46:15;7.05;;;4.30;;
23175;SDS011;19910;42.652;23.332;2023-07-22T01:48:42;7.88;;;3.97;;
23175;SDS011;19910;42.652;23.332;2023-07-22T01:51:09;9.25;;;4.90;;
23175;SDS011;19910;42.652;23.332;2023-07-22T01:53:36;6.57;;;4.32;;
23175;SDS011;19910;42.652;23.332;2023-07-22T01:56:03;10.18;;;5.00;;
23175;SDS011;19910;42.652;23.332;2023-07-22T01:58:32;14.77;;;4.50;;
23175;SDS011;19910;42.652;23.332;2023-07-22T02:00:59;10.23;;;5.20;;
23175;SDS011;19910;42.652;23.332;2023-07-22T02:03:26;7.25;;;4.45;;
23175;SDS011;19910;42.652;23.332;2023-07-22T02:05:53;8.88;;;4.32;;
23175;SDS011;19910;42.652;23.332;2023-07-22T02:08:19;9.38;;;4.40;;
23175;SDS011;19910;42.652;23.332;2023-07-22T02:10:46;9.95;;;4.80;;
23175;SDS011;19910;42.652;23.332;2023-07-22T02:13:14;7.00;;;4.38;;
23175;SDS011;19910;42.652;23.332;2023-07-22T02:15:42;11.30;;;4.43;;
23175;SDS011;19910;42.652;23.332;2023-07-22T02:18:09;8.10;;;4.65;;
23175;SDS011;19910;42.652;23.332;2023-07-22T02:20:36;10.40;;;4.57;;
23175;SDS011;19910;42.652;23.332;2023-07-22T02:23:03;10.85;;;4.68;;
23175;SDS011;19910;42.652;23.332;2023-07-22T02:25:29;6.20;;;4.32;;
23175;SDS011;19910;42.652;23.332;2023-07-22T02:27:56;9.68;;;4.18;;
23175;SDS011;19910;42.652;23.332;2023-07-22T02:30:23;10.95;;;4.25;;
23175;SDS011;19910;42.652;23.332;2023-07-22T02:32:51;8.95;;;4.25;;
23175;SDS011;19910;42.652;23.332;2023-07-22T02:35:18;9.70;;;5.28;;
23175;SDS011;19910;42.652;23.332;2023-07-22T02:37:45;9.95;;;4.70;;
23175;SDS011;19910;42.652;23.332;2023-07-22T02:40:12;10.25;;;4.13;;
23175;SDS011;19910;42.652;23.332;2023-07-22T02:42:38;8.07;;;4.05;;
23175;SDS011;19910;42.652;23.332;2023-07-22T02:45:06;9.10;;;4.22;;
23175;SDS011;19910;42.652;23.332;2023-07-22T02:47:34;7.85;;;4.40;;
23175;SDS011;19910;42.652;23.332;2023-07-22T02:50:02;7.85;;;4.50;;
23175;SDS011;19910;42.652;23.332;2023-07-22T02:52:30;10.93;;;4.55;;
23175;SDS011;19910;42.652;23.332;2023-07-22T02:55:03;12.70;;;5.32;;
23175;SDS011;19910;42.652;23.332;2023-07-22T02:57:32;6.15;;;4.15;;
23175;SDS011;19910;42.652;23.332;2023-07-22T03:00:00;13.82;;;4.35;;
23175;SDS011;19910;42.652;23.332;2023-07-22T03:02:32;14.27;;;4.90;;
23175;SDS011;19910;42.652;23.332;2023-07-22T03:04:58;11.07;;;4.75;;
23175;SDS011;19910;42.652;23.332;2023-07-22T03:07:27;6.55;;;4.57;;
23175;SDS011;19910;42.652;23.332;2023-07-22T03:09:53;7.13;;;4.72;;
23175;SDS011;19910;42.652;23.332;2023-07-22T03:12:20;8.95;;;4.35;;
23175;SDS011;19910;42.652;23.332;2023-07-22T03:14:47;7.20;;;3.65;;
23175;SDS011;19910;42.652;23.332;2023-07-22T03:17:14;11.95;;;5.05;;
23175;SDS011;19910;42.652;23.332;2023-07-22T03:19:42;7.90;;;4.97;;
23175;SDS011;19910;42.652;23.332;2023-07-22T03:22:09;7.43;;;4.90;;
23175;SDS011;19910;42.652;23.332;2023-07-22T03:24:37;11.55;;;5.05;;
23175;SDS011;19910;42.652;23.332;2023-07-22T03:27:04;7.70;;;4.35;;
23175;SDS011;19910;42.652;23.332;2023-07-22T03:29:32;7.97;;;4.63;;
23175;SDS011;19910;42.652;23.332;2023-07-22T03:31:59;7.35;;;4.25;;
23175;SDS011;19910;42.652;23.332;2023-07-22T03:34:26;8.43;;;4.50;;
23175;SDS011;19910;42.652;23.332;2023-07-22T03:36:53;9.38;;;4.82;;
23175;SDS011;19910;42.652;23.332;2023-07-22T03:39:19;10.35;;;4.72;;
23175;SDS011;19910;42.652;23.332;2023-07-22T03:41:48;8.27;;;4.45;;
23175;SDS011;19910;42.652;23.332;2023-07-22T03:44:15;11.10;;;4.85;;
23175;SDS011;19910;42.652;23.332;2023-07-22T03:46:42;9.77;;;4.55;;
23175;SDS011;19910;42.652;23.332;2023-07-22T03:49:08;7.05;;;4.97;;
23175;SDS011;19910;42.652;23.332;2023-07-22T03:51:35;16.83;;;4.65;;
23175;SDS011;19910;42.652;23.332;2023-07-22T03:54:02;10.55;;;4.80;;
23175;SDS011;19910;42.652;23.332;2023-07-22T03:56:29;9.25;;;4.75;;
23175;SDS011;19910;42.652;23.332;2023-07-22T03:58:57;13.48;;;5.63;;
23175;SDS011;19910;42.652;23.332;2023-07-22T04:01:24;10.20;;;5.43;;
23175;SDS011;19910;42.652;23.332;2023-07-22T04:03:50;11.65;;;6.03;;
23175;SDS011;19910;42.652;23.332;2023-07-22T04:06:17;8.93;;;5.60;;
23175;SDS011;19910;42.652;23.332;2023-07-22T04:08:44;9.63;;;6.07;;
23175;SDS011;19910;42.652;23.332;2023-07-22T04:11:11;8.43;;;4.53;;
23175;SDS011;19910;42.652;23.332;2023-07-22T04:13:39;8.73;;;5.40;;
23175;SDS011;19910;42.652;23.332;2023-07-22T04:16:07;11.43;;;6.00;;
23175;SDS011;19910;42.652;23.332;2023-07-22T04:18:34;12.00;;;5.85;;
23175;SDS011;19910;42.652;23.332;2023-07-22T04:21:00;14.10;;;6.25;;
23175;SDS011;19910;42.652;23.332;2023-07-22T04:23:27;13.43;;;5.80;;
23175;SDS011;19910;42.652;23.332;2023-07-22T04:25:54;11.52;;;5.50;;
23175;SDS011;19910;42.652;23.332;2023-07-22T04:28:21;12.20;;;5.57;;
23175;SDS011;19910;42.652;23.332;2023-07-22T04:30:54;10.27;;;5.60;;
23175;SDS011;19910;42.652;23.332;2023-07-22T04:33:24;15.73;;;5.35;;
23175;SDS011;19910;42.652;23.332;2023-07-22T04:35:52;10.32;;;5.63;;
23175;SDS011;19910;42.652;23.332;2023-07-22T04:38:19;8.77;;;5.43;;
23175;SDS011;19910;42.652;23.332;2023-07-22T04:40:46;8.23;;;5.13;;
23175;SDS011;19910;42.652;23.332;2023-07-22T04:43:13;10.88;;;5.65;;
23175;SDS011;19910;42.652;23.332;2023-07-22T04:45:40;9.07;;;5.30;;
23175;SDS011;19910;42.652;23.332;2023-07-22T04:48:07;9.35;;;6.10;;
23175;SDS011;19910;42.652;23.332;2023-07-22T04:50:35;7.15;;;5.63;;
23175;SDS011;19910;42.652;23.332;2023-07-22T04:53:05;6.95;;;5.10;;
23175;SDS011;19910;42.652;23.332;2023-07-22T04:55:32;9.27;;;5.57;;
23175;SDS011;19910;42.652;23.332;2023-07-22T04:57:59;9.35;;;5.53;;
23175;SDS011;19910;42.652;23.332;2023-07-22T05:00:26;9.63;;;5.18;;
23175;SDS011;19910;42.652;23.332;2023-07-22T05:02:54;11.93;;;5.50;;
23175;SDS011;19910;42.652;23.332;2023-07-22T05:05:21;7.90;;;5.50;;
23175;SDS011;19910;42.652;23.332;2023-07-22T05:07:50;7.53;;;5.72;;
23175;SDS011;19910;42.652;23.332;2023-07-22T05:10:17;14.35;;;5.90;;
23175;SDS011;19910;42.652;23.332;2023-07-22T05:12:45;11.60;;;6.18;;
23175;SDS011;19910;42.652;23.332;2023-07-22T05:15:12;8.40;;;5.63;;
23175;SDS011;19910;42.652;23.332;2023-07-22T05:17:40;6.75;;;5.18;;
23175;SDS011;19910;42.652;23.332;2023-07-22T05:20:07;11.40;;;6.07;;
23175;SDS011;19910;42.652;23.332;2023-07-22T05:22:36;8.63;;;5.88;;
23175;SDS011;19910;42.652;23.332;2023-07-22T05:25:05;8.93;;;5.72;;
23175;SDS011;19910;42.652;23.332;2023-07-22T05:27:33;9.02;;;6.18;;
23175;SDS011;19910;42.652;23.332;2023-07-22T05:30:00;9.45;;;6.20;;
23175;SDS011;19910;42.652;23.332;2023-07-22T05:32:28;9.90;;;6.07;;
23175;SDS011;19910;42.652;23.332;2023-07-22T05:34:55;12.70;;;6.32;;
23175;SDS011;19910;42.652;23.332;2023-07-22T05:37:22;11.05;;;5.93;;
23175;SDS011;19910;42.652;23.332;2023-07-22T05:39:49;11.40;;;6.05;;
23175;SDS011;19910;42.652;23.332;2023-07-22T05:42:18;11.35;;;5.82;;
23175;SDS011;19910;42.652;23.332;2023-07-22T05:44:45;10.50;;;6.38;;
23175;SDS011;19910;42.652;23.332;2023-07-22T05:47:12;8.18;;;5.95;;
23175;SDS011;19910;42.652;23.332;2023-07-22T05:49:39;12.48;;;6.35;;
23175;SDS011;19910;42.652;23.332;2023-07-22T05:52:06;10.63;;;6.35;;
23175;SDS011;19910;42.652;23.332;2023-07-22T05:54:33;10.18;;;6.32;;
23175;SDS011;19910;42.652;23.332;2023-07-22T05:57:00;11.48;;;6.22;;
23175;SDS011;19910;42.652;23.332;2023-07-22T05:59:30;14.57;;;6.40;;
23175;SDS011;19910;42.652;23.332;2023-07-22T06:01:57;10.82;;;6.63;;
23175;SDS011;19910;42.652;23.332;2023-07-22T06:04:24;10.50;;;6.93;;
23175;SDS011;19910;42.652;23.332;2023-07-22T06:06:50;10.52;;;6.55;;
23175;SDS011;19910;42.652;23.332;2023-07-22T06:09:17;10.18;;;6.22;;
23175;SDS011;19910;42.652;23.332;2023-07-22T06:11:45;14.55;;;7.20;;
23175;SDS011;19910;42.652;23.332;2023-07-22T06:14:12;11.02;;;6.32;;
23175;SDS011;19910;42.652;23.332;2023-07-22T06:16:40;14.15;;;7.13;;
23175;SDS011;19910;42.652;23.332;2023-07-22T06:19:07;8.88;;;6.45;;
23175;SDS011;19910;42.652;23.332;2023-07-22T06:21:33;10.95;;;6.90;;
23175;SDS011;19910;42.652;23.332;2023-07-22T06:24:00;13.18;;;7.75;;
23175;SDS011;19910;42.652;23.332;2023-07-22T06:26:27;9.50;;;6.78;;
23175;SDS011;19910;42.652;23.332;2023-07-22T06:28:54;9.95;;;6.70;;
23175;SDS011;19910;42.652;23.332;2023-07-22T06:31:20;12.00;;;6.90;;
23175;SDS011;19910;42.652;23.332;2023-07-22T06:33:49;15.82;;;7.88;;
23175;SDS011;19910;42.652;23.332;2023-07-22T06:36:15;12.23;;;7.05;;
23175;SDS011;19910;42.652;23.332;2023-07-22T06:38:42;10.20;;;7.63;;
23175;SDS011;19910;42.652;23.332;2023-07-22T06:41:09;10.88;;;6.88;;
23175;SDS011;19910;42.652;23.332;2023-07-22T06:43:36;10.57;;;7.13;;
23175;SDS011;19910;42.652;23.332;2023-07-22T06:46:03;12.48;;;7.50;;
23175;SDS011;19910;42.652;23.332;2023-07-22T06:48:29;10.10;;;7.68;;
23175;SDS011;19910;42.652;23.332;2023-07-22T06:50:57;10.68;;;7.30;;
23175;SDS011;19910;42.652;23.332;2023-07-22T06:53:24;13.30;;;8.07;;
23175;SDS011;19910;42.652;23.332;2023-07-22T06:55:51;12.02;;;7.82;;
23175;SDS011;19910;42.652;23.332;2023-07-22T06:58:19;13.70;;;7.90;;
23175;SDS011;19910;42.652;23.332;2023-07-22T07:00:47;13.30;;;7.60;;
23175;SDS011;19910;42.652;23.332;2023-07-22T07:03:14;16.17;;;8.48;;
23175;SDS011;19910;42.652;23.332;2023-07-22T07:05:41;20.30;;;8.23;;
23175;SDS011;19910;42.652;23.332;2023-07-22T07:08:09;10.73;;;7.93;;
23175;SDS011;19910;42.652;23.332;2023-07-22T07:10:37;12.18;;;8.05;;
23175;SDS011;19910;42.652;23.332;2023-07-22T07:13:05;13.95;;;8.52;;
23175;SDS011;19910;42.652;23.332;2023-07-22T07:15:32;13.23;;;7.70;;
23175;SDS011;19910;42.652;23.332;2023-07-22T07:17:58;12.25;;;8.63;;
23175;SDS011;19910;42.652;23.332;2023-07-22T07:20:25;11.98;;;8.18;;
23175;SDS011;19910;42.652;23.332;2023-07-22T07:22:52;12.27;;;6.85;;
23175;SDS011;19910;42.652;23.332;2023-07-22T07:25:20;10.77;;;7.00;;
23175;SDS011;19910;42.652;23.332;2023-07-22T07:27:47;12.68;;;7.22;;
23175;SDS011;19910;42.652;23.332;2023-07-22T07:30:14;10.85;;;7.28;;
23175;SDS011;19910;42.652;23.332;2023-07-22T07:32:40;10.70;;;7.55;;
23175;SDS011;19910;42.652;23.332;2023-07-22T07:35:07;11.23;;;6.88;;
23175;SDS011;19910;42.652;23.332;2023-07-22T07:37:35;11.10;;;7.35;;
23175;SDS011;19910;42.652;23.332;2023-07-22T07:40:02;10.55;;;7.25;;
23175;SDS011;19910;42.652;23.332;2023-07-22T07:42:30;12.27;;;7.78;;
23175;SDS011;19910;42.652;23.332;2023-07-22T07:44:57;13.82;;;7.28;;
23175;SDS011;19910;42.652;23.332;2023-07-22T07:47:24;11.02;;;8.00;;
23175;SDS011;19910;42.652;23.332;2023-07-22T07:49:51;12.82;;;8.23;;
23175;SDS011;19910;42.652;23.332;2023-07-22T07:52:17;10.90;;;7.68;;
23175;SDS011;19910;42.652;23.332;2023-07-22T07:54:44;12.73;;;8.00;;
23175;SDS011;19910;42.652;23.332;2023-07-22T07:57:11;10.07;;;7.55;;
23175;SDS011;19910;42.652;23.332;2023-07-22T07:59:39;13.95;;;7.65;;
23175;SDS011;19910;42.652;23.332;2023-07-22T08:02:06;11.43;;;7.93;;
23175;SDS011;19910;42.652;23.332;2023-07-22T08:04:35;13.85;;;7.80;;
23175;SDS011;19910;42.652;23.332;2023-07-22T08:07:02;15.30;;;8.13;;
23175;SDS011;19910;42.652;23.332;2023-07-22T08:09:30;14.02;;;7.72;;
23175;SDS011;19910;42.652;23.332;2023-07-22T08:11:56;10.98;;;7.45;;
23175;SDS011;19910;42.652;23.332;2023-07-22T08:14:23;13.10;;;7.90;;
23175;SDS011;19910;42.652;23.332;2023-07-22T08:16:52;11.77;;;7.55;;
23175;SDS011;19910;42.652;23.332;2023-07-22T08:19:18;11.70;;;8.25;;
23175;SDS011;19910;42.652;23.332;2023-07-22T08:21:45;13.60;;;7.70;;
23175;SDS011;19910;42.652;23.332;2023-07-22T08:24:12;13.63;;;7.53;;
23175;SDS011;19910;42.652;23.332;2023-07-22T08:26:39;12.75;;;7.93;;
23175;SDS011;19910;42.652;23.332;2023-07-22T08:29:05;14.52;;;8.07;;
23175;SDS011;19910;42.652;23.332;2023-07-22T08:31:32;12.07;;;8.43;;
23175;SDS011;19910;42.652;23.332;2023-07-22T08:34:00;12.00;;;7.78;;
23175;SDS011;19910;42.652;23.332;2023-07-22T08:36:27;15.35;;;8.65;;
23175;SDS011;19910;42.652;23.332;2023-07-22T08:38:54;15.45;;;8.38;;
23175;SDS011;19910;42.652;23.332;2023-07-22T08:41:21;13.02;;;8.20;;
23175;SDS011;19910;42.652;23.332;2023-07-22T08:43:50;12.60;;;8.10;;
23175;SDS011;19910;42.652;23.332;2023-07-22T08:46:22;16.73;;;8.15;;
23175;SDS011;19910;42.652;23.332;2023-07-22T08:48:53;13.20;;;8.20;;
23175;SDS011;19910;42.652;23.332;2023-07-22T08:51:22;14.38;;;8.00;;
23175;SDS011;19910;42.652;23.332;2023-07-22T08:53:50;13.77;;;8.02;;
23175;SDS011;19910;42.652;23.332;2023-07-22T08:56:17;15.63;;;8.32;;
23175;SDS011;19910;42.652;23.332;2023-07-22T08:58:45;11.45;;;8.07;;
23175;SDS011;19910;42.652;23.332;2023-07-22T09:01:12;15.57;;;8.23;;
23175;SDS011;19910;42.652;23.332;2023-07-22T09:03:39;15.82;;;8.23;;
23175;SDS011;19910;42.652;23.332;2023-07-22T09:06:08;15.50;;;8.60;;
23175;SDS011;19910;42.652;23.332;2023-07-22T09:08:36;13.43;;;8.00;;
23175;SDS011;19910;42.652;23.332;2023-07-22T09:11:04;14.73;;;8.27;;
23175;SDS011;19910;42.652;23.332;2023-07-22T09:13:32;13.18;;;8.40;;
23175;SDS011;19910;42.652;23.332;2023-07-22T09:16:00;17.15;;;8.95;;
23175;SDS011;19910;42.652;23.332;2023-07-22T09:18:28;14.35;;;9.05;;
23175;SDS011;19910;42.652;23.332;2023-07-22T09:20:55;14.95;;;9.13;;
23175;SDS011;19910;42.652;23.332;2023-07-22T09:23:31;14.77;;;8.48;;
23175;SDS011;19910;42.652;23.332;2023-07-22T09:26:09;12.85;;;8.75;;
23175;SDS011;19910;42.652;23.332;2023-07-22T09:28:49;12.50;;;8.20;;
23175;SDS011;19910;42.652;23.332;2023-07-22T09:31:20;12.45;;;8.13;;
23175;SDS011;19910;42.652;23.332;2023-07-22T09:33:47;11.60;;;7.70;;
23175;SDS011;19910;42.652;23.332;2023-07-22T09:36:13;15.80;;;7.88;;
23175;SDS011;19910;42.652;23.332;2023-07-22T09:38:40;12.90;;;8.25;;
23175;SDS011;19910;42.652;23.332;2023-07-22T09:41:08;13.90;;;8.40;;
23175;SDS011;19910;42.652;23.332;2023-07-22T09:43:38;17.05;;;7.93;;
23175;SDS011;19910;42.652;23.332;2023-07-22T09:46:06;12.70;;;8.07;;
23175;SDS011;19910;42.652;23.332;2023-07-22T09:48:39;14.73;;;8.23;;
23175;SDS011;19910;42.652;23.332;2023-07-22T09:51:11;16.70;;;8.07;;
23175;SDS011;19910;42.652;23.332;2023-07-22T09:53:38;14.93;;;8.07;;
23175;SDS011;19910;42.652;23.332;2023-07-22T09:56:12;14.02;;;7.95;;
23175;SDS011;19910;42.652;23.332;2023-07-22T09:58:38;13.38;;;7.72;;
23175;SDS011;19910;42.652;23.332;2023-07-22T10:01:06;15.52;;;7.43;;
23175;SDS011;19910;42.652;23.332;2023-07-22T10:03:34;12.23;;;7.15;;
23175;SDS011;19910;42.652;23.332;2023-07-22T10:06:03;16.35;;;8.23;;
23175;SDS011;19910;42.652;23.332;2023-07-22T10:08:32;15.57;;;7.70;;
23175;SDS011;19910;42.652;23.332;2023-07-22T10:11:00;11.80;;;7.60;;
23175;SDS011;19910;42.652;23.332;2023-07-22T10:13:30;14.13;;;6.93;;
23175;SDS011;19910;42.652;23.332;2023-07-22T10:15:58;13.23;;;7.38;;
23175;SDS011;19910;42.652;23.332;2023-07-22T10:18:25;15.27;;;7.30;;
23175;SDS011;19910;42.652;23.332;2023-07-22T10:20:52;12.52;;;6.68;;
23175;SDS011;19910;42.652;23.332;2023-07-22T10:23:20;14.88;;;7.25;;
23175;SDS011;19910;42.652;23.332;2023-07-22T10:25:49;16.75;;;7.22;;
23175;SDS011;19910;42.652;23.332;2023-07-22T10:28:17;14.52;;;6.70;;
23175;SDS011;19910;42.652;23.332;2023-07-22T10:30:47;14.07;;;6.93;;
23175;SDS011;19910;42.652;23.332;2023-07-22T10:33:14;13.50;;;7.30;;
23175;SDS011;19910;42.652;23.332;2023-07-22T10:35:41;18.45;;;8.02;;
23175;SDS011;19910;42.652;23.332;2023-07-22T10:38:09;17.10;;;7.88;;
23175;SDS011;19910;42.652;23.332;2023-07-22T10:40:45;13.88;;;6.78;;
23175;SDS011;19910;42.652;23.332;2023-07-22T10:43:14;16.23;;;6.28;;
23175;SDS011;19910;42.652;23.332;2023-07-22T10:45:43;15.55;;;5.40;;
23175;SDS011;19910;42.652;23.332;2023-07-22T10:48:17;13.65;;;5.18;;
23175;SDS011;19910;42.652;23.332;2023-07-22T10:50:46;18.38;;;5.10;;
23175;SDS011;19910;42.652;23.332;2023-07-22T10:53:14;20.38;;;5.68;;
23175;SDS011;19910;42.652;23.332;2023-07-22T10:56:02;21.52;;;5.07;;
23175;SDS011;19910;42.652;23.332;2023-07-22T10:58:30;19.92;;;5.38;;
23175;SDS011;19910;42.652;23.332;2023-07-22T11:04:17;21.42;;;5.82;;
23175;SDS011;19910;42.652;23.332;2023-07-22T11:06:55;23.33;;;5.25;;
23175;SDS011;19910;42.652;23.332;2023-07-22T11:09:36;19.50;;;5.00;;
23175;SDS011;19910;42.652;23.332;2023-07-22T11:12:08;19.50;;;5.10;;
23175;SDS011;19910;42.652;23.332;2023-07-22T11:14:38;18.48;;;5.28;;
23175;SDS011;19910;42.652;23.332;2023-07-22T11:17:07;15.95;;;5.57;;
23175;SDS011;19910;42.652;23.332;2023-07-22T11:19:36;17.55;;;5.15;;
23175;SDS011;19910;42.652;23.332;2023-07-22T11:22:04;19.27;;;5.50;;
23175;SDS011;19910;42.652;23.332;2023-07-22T11:24:31;18.98;;;5.28;;
23175;SDS011;19910;42.652;23.332;2023-07-22T11:26:59;19.10;;;5.82;;
23175;SDS011;19910;42.652;23.332;2023-07-22T11:29:26;20.65;;;5.05;;
23175;SDS011;19910;42.652;23.332;2023-07-22T11:31:53;15.95;;;5.25;;
23175;SDS011;19910;42.652;23.332;2023-07-22T11:34:22;16.58;;;5.38;;
23175;SDS011;19910;42.652;23.332;2023-07-22T11:36:50;19.20;;;5.47;;
23175;SDS011;19910;42.652;23.332;2023-07-22T11:39:18;15.63;;;5.78;;
23175;SDS011;19910;42.652;23.332;2023-07-22T11:41:47;29.73;;;6.60;;
23175;SDS011;19910;42.652;23.332;2023-07-22T11:44:15;22.27;;;5.50;;
23175;SDS011;19910;42.652;23.332;2023-07-22T11:46:46;18.27;;;5.07;;
23175;SDS011;19910;42.652;23.332;2023-07-22T11:49:22;24.33;;;5.07;;
23175;SDS011;19910;42.652;23.332;2023-07-22T11:51:50;24.48;;;6.25;;
23175;SDS011;19910;42.652;23.332;2023-07-22T11:54:18;19.27;;;5.70;;
23175;SDS011;19910;42.652;23.332;2023-07-22T11:56:46;18.98;;;5.53;;
23175;SDS011;19910;42.652;23.332;2023-07-22T11:59:13;22.30;;;6.25;;
23175;SDS011;19910;42.652;23.332;2023-07-22T12:01:42;14.73;;;5.28;;
23175;SDS011;19910;42.652;23.332;2023-07-22T12:04:10;15.30;;;5.43;;
23175;SDS011;19910;42.652;23.332;2023-07-22T12:06:39;17.13;;;4.85;;
23175;SDS011;19910;42.652;23.332;2023-07-22T12:09:07;19.23;;;5.82;;
23175;SDS011;19910;42.652;23.332;2023-07-22T12:11:35;15.38;;;5.22;;
23175;SDS011;19910;42.652;23.332;2023-07-22T12:14:09;24.40;;;5.43;;
23175;SDS011;19910;42.652;23.332;2023-07-22T12:16:37;16.63;;;5.13;;
23175;SDS011;19910;42.652;23.332;2023-07-22T12:19:05;22.55;;;5.35;;
23175;SDS011;19910;42.652;23.332;2023-07-22T12:21:32;22.38;;;5.88;;
23175;SDS011;19910;42.652;23.332;2023-07-22T12:24:01;16.70;;;5.47;;
23175;SDS011;19910;42.652;23.332;2023-07-22T12:26:29;20.52;;;5.18;;
23175;SDS011;19910;42.652;23.332;2023-07-22T12:28:56;23.20;;;5.88;;
23175;SDS011;19910;42.652;23.332;2023-07-22T12:31:24;18.20;;;5.40;;
23175;SDS011;19910;42.652;23.332;2023-07-22T12:33:51;16.00;;;4.88;;
23175;SDS011;19910;42.652;23.332;2023-07-22T12:36:18;15.68;;;5.35;;
23175;SDS011;19910;42.652;23.332;2023-07-22T12:38:44;14.38;;;4.65;;
23175;SDS011;19910;42.652;23.332;2023-07-22T12:41:13;14.57;;;4.90;;
23175;SDS011;19910;42.652;23.332;2023-07-22T12:43:39;18.50;;;5.10;;
23175;SDS011;19910;42.652;23.332;2023-07-22T12:46:06;17.38;;;4.97;;
23175;SDS011;19910;42.652;23.332;2023-07-22T12:48:33;19.17;;;5.35;;
23175;SDS011;19910;42.652;23.332;2023-07-22T12:50:59;23.35;;;5.20;;
23175;SDS011;19910;42.652;23.332;2023-07-22T12:53:26;19.60;;;5.18;;
23175;SDS011;19910;42.652;23.332;2023-07-22T12:55:54;15.25;;;5.43;;
23175;SDS011;19910;42.652;23.332;2023-07-22T12:58:21;18.55;;;4.85;;
23175;SDS011;19910;42.652;23.332;2023-07-22T13:00:48;18.88;;;5.40;;
23175;SDS011;19910;42.652;23.332;2023-07-22T13:03:14;20.60;;;5.90;;
23175;SDS011;19910;42.652;23.332;2023-07-22T13:05:41;21.95;;;5.50;;
23175;SDS011;19910;42.652;23.332;2023-07-22T13:08:08;19.60;;;4.90;;
23175;SDS011;19910;42.652;23.332;2023-07-22T13:10:35;18.25;;;5.18;;
23175;SDS011;19910;42.652;23.332;2023-07-22T13:13:03;21.00;;;5.35;;
23175;SDS011;19910;42.652;23.332;2023-07-22T13:15:32;19.30;;;5.00;;
23175;SDS011;19910;42.652;23.332;2023-07-22T13:17:59;15.32;;;5.18;;
23175;SDS011;19910;42.652;23.332;2023-07-22T13:20:26;18.13;;;4.85;;
23175;SDS011;19910;42.652;23.332;2023-07-22T13:22:52;15.93;;;5.18;;
23175;SDS011;19910;42.652;23.332;2023-07-22T13:25:19;18.50;;;4.85;;
23175;SDS011;19910;42.652;23.332;2023-07-22T13:27:46;19.55;;;5.10;;
23175;SDS011;19910;42.652;23.332;2023-07-22T13:30:13;16.38;;;5.07;;
23175;SDS011;19910;42.652;23.332;2023-07-22T13:32:41;23.75;;;5.72;;
23175;SDS011;19910;42.652;23.332;2023-07-22T13:35:08;14.85;;;4.93;;
23175;SDS011;19910;42.652;23.332;2023-07-22T13:37:35;17.17;;;4.88;;
23175;SDS011;19910;42.652;23.332;2023-07-22T13:40:02;15.68;;;4.47;;
23175;SDS011;19910;42.652;23.332;2023-07-22T13:42:35;18.58;;;4.80;;
23175;SDS011;19910;42.652;23.332;2023-07-22T13:45:02;17.75;;;4.88;;
23175;SDS011;19910;42.652;23.332;2023-07-22T13:47:29;17.75;;;4.70;;
23175;SDS011;19910;42.652;23.332;2023-07-22T13:49:57;18.92;;;4.72;;
23175;SDS011;19910;42.652;23.332;2023-07-22T13:52:24;16.77;;;4.70;;
23175;SDS011;19910;42.652;23.332;2023-07-22T13:54:51;15.98;;;5.15;;
23175;SDS011;19910;42.652;23.332;2023-07-22T13:57:17;20.42;;;4.85;;
23175;SDS011;19910;42.652;23.332;2023-07-22T13:59:44;19.75;;;4.85;;
23175;SDS011;19910;42.652;23.332;2023-07-22T14:02:11;18.25;;;4.80;;
23175;SDS011;19910;42.652;23.332;2023-07-22T14:04:38;18.98;;;4.57;;
23175;SDS011;19910;42.652;23.332;2023-07-22T14:07:06;19.42;;;4.75;;
23175;SDS011;19910;42.652;23.332;2023-07-22T14:09:33;16.83;;;4.70;;
23175;SDS011;19910;42.652;23.332;2023-07-22T14:11:59;24.52;;;4.80;;
23175;SDS011;19910;42.652;23.332;2023-07-22T14:14:26;25.02;;;5.28;;
23175;SDS011;19910;42.652;23.332;2023-07-22T14:16:54;22.45;;;4.80;;
23175;SDS011;19910;42.652;23.332;2023-07-22T14:19:21;16.75;;;4.93;;
23175;SDS011;19910;42.652;23.332;2023-07-22T14:21:49;19.05;;;5.50;;
23175;SDS011;19910;42.652;23.332;2023-07-22T14:24:17;17.70;;;4.70;;
23175;SDS011;19910;42.652;23.332;2023-07-22T14:26:44;20.30;;;5.50;;
23175;SDS011;19910;42.652;23.332;2023-07-22T14:29:12;16.58;;;4.70;;